Time,TemperatureF,DewpointF,PressureIn,WindDirection,WindDirectionDegrees,WindSpeedMPH,WindSpeedGustMPH,Humidity,HourlyPrecipIn,Conditions,Clouds,dailyrainin,SoftwareType,DateUTC
2013-10-24 00:00:00,57.3,28.4,29.81,SSE,150,1.0,1.0,33,0.00,,,0.00,Wunderground v.1.15,2013-10-24 07:00:00,
2013-10-24 00:10:00,55.8,28.5,29.81,SSE,155,2.0,4.0,35,0.00,,,0.00,Wunderground v.1.15,2013-10-24 07:10:00,
2013-10-24 00:15:00,55.1,29.9,29.81,South,174,3.0,5.0,38,0.00,,,0.00,Wunderground v.1.15,2013-10-24 07:15:00,
2013-10-24 00:25:00,55.7,30.5,29.81,WSW,244,3.0,4.0,38,0.00,,,0.00,Wunderground v.1.15,2013-10-24 07:25:00,
2013-10-24 00:30:00,55.7,30.5,29.81,WSW,244,2.0,4.0,38,0.00,,,0.00,Wunderground v.1.15,2013-10-24 07:30:00,
2013-10-24 00:35:00,55.6,29.7,29.81,WSW,240,3.0,4.0,37,0.00,,,0.00,Wunderground v.1.15,2013-10-24 07:35:00,
2013-10-24 00:40:00,55.4,29.5,29.81,SW,223,4.0,5.0,37,0.00,,,0.00,Wunderground v.1.15,2013-10-24 07:40:00,
2013-10-24 00:45:00,55.8,29.2,29.81,SW,225,5.0,5.0,36,0.00,,,0.00,Wunderground v.1.15,2013-10-24 07:45:00,
2013-10-24 00:50:00,56.5,29.1,29.81,SW,224,4.0,4.0,35,0.00,,,0.00,Wunderground v.1.15,2013-10-24 07:50:00,
2013-10-24 00:55:00,56.5,28.4,29.81,SW,223,4.0,4.0,34,0.00,,,0.00,Wunderground v.1.15,2013-10-24 07:55:00,
2013-10-24 01:01:00,56.2,28.2,29.81,SW,223,3.0,3.0,34,0.00,,,0.00,Wunderground v.1.15,2013-10-24 08:01:00,
2013-10-24 01:10:00,54.5,28.1,29.81,SW,223,0.0,0.0,36,0.00,,,0.00,Wunderground v.1.15,2013-10-24 08:10:00,
2013-10-24 01:20:00,53.7,28.0,29.81,SW,223,0.0,0.0,37,0.00,,,0.00,Wunderground v.1.15,2013-10-24 08:20:00,
2013-10-24 01:25:00,53.9,28.2,29.81,SW,223,0.0,6.0,37,0.00,,,0.00,Wunderground v.1.15,2013-10-24 08:25:00,
2013-10-24 01:30:00,53.7,28.0,29.81,SW,223,0.0,6.0,37,0.00,,,0.00,Wunderground v.1.15,2013-10-24 08:30:00,
2013-10-24 01:35:00,54.0,28.3,29.81,SW,223,0.0,6.0,37,0.00,,,0.00,Wunderground v.1.15,2013-10-24 08:35:00,
2013-10-24 01:40:00,53.6,28.6,29.81,SW,223,0.0,6.0,38,0.00,,,0.00,Wunderground v.1.15,2013-10-24 08:40:00,
2013-10-24 01:45:00,53.3,29.6,29.81,SW,223,0.0,6.0,40,0.00,,,0.00,Wunderground v.1.15,2013-10-24 08:45:00,
2013-10-24 01:50:00,53.3,30.2,29.81,SW,223,0.0,6.0,41,0.00,,,0.00,Wunderground v.1.15,2013-10-24 08:50:00,
2013-10-24 01:55:00,52.8,31.5,29.81,SW,223,0.0,6.0,44,0.00,,,0.00,Wunderground v.1.15,2013-10-24 08:55:00,
2013-10-24 02:00:00,52.1,30.3,29.81,SW,223,0.0,0.0,43,0.00,,,0.00,Wunderground v.1.15,2013-10-24 09:00:00,
2013-10-24 02:10:00,50.9,28.0,29.81,SW,223,0.0,0.0,41,0.00,,,0.00,Wunderground v.1.15,2013-10-24 09:10:00,
2013-10-24 02:15:00,50.7,28.4,29.81,SW,223,0.0,0.0,42,0.00,,,0.00,Wunderground v.1.15,2013-10-24 09:15:00,
2013-10-24 02:20:00,50.7,28.4,29.81,SW,223,0.0,0.0,42,0.00,,,0.00,Wunderground v.1.15,2013-10-24 09:20:00,
2013-10-24 02:25:00,51.0,28.7,29.81,SW,223,0.0,0.0,42,0.00,,,0.00,Wunderground v.1.15,2013-10-24 09:25:00,
2013-10-24 02:30:00,51.3,28.4,29.81,SW,223,0.0,0.0,41,0.00,,,0.00,Wunderground v.1.15,2013-10-24 09:30:00,
2013-10-24 02:35:00,51.7,29.3,29.81,SW,223,0.0,0.0,42,0.00,,,0.00,Wunderground v.1.15,2013-10-24 09:35:00,
2013-10-24 02:40:00,51.7,28.7,29.81,SW,223,0.0,0.0,41,0.00,,,0.00,Wunderground v.1.15,2013-10-24 09:40:00,
2013-10-24 02:50:00,50.5,27.0,29.81,SW,223,0.0,0.0,40,0.00,,,0.00,Wunderground v.1.15,2013-10-24 09:50:00,
2013-10-24 02:55:00,49.9,26.5,29.81,SW,223,1.0,1.0,40,0.00,,,0.00,Wunderground v.1.15,2013-10-24 09:55:00,
2013-10-24 03:00:00,49.5,26.7,29.81,SW,223,1.0,1.0,41,0.00,,,0.00,Wunderground v.1.15,2013-10-24 10:00:00,
2013-10-24 03:05:00,49.1,27.0,29.81,SW,223,0.0,1.0,42,0.00,,,0.00,Wunderground v.1.15,2013-10-24 10:05:00,
2013-10-24 03:15:00,48.6,27.1,29.81,SW,223,0.0,0.0,43,0.00,,,0.00,Wunderground v.1.15,2013-10-24 10:15:00,
2013-10-24 03:20:00,48.4,26.9,29.81,SW,223,0.0,0.0,43,0.00,,,0.00,Wunderground v.1.15,2013-10-24 10:20:00,
2013-10-24 03:25:00,48.2,26.7,29.81,SW,223,0.0,2.0,43,0.00,,,0.00,Wunderground v.1.15,2013-10-24 10:25:00,
2013-10-24 03:30:00,47.7,26.3,29.81,SW,223,0.0,2.0,43,0.00,,,0.00,Wunderground v.1.15,2013-10-24 10:30:00,
2013-10-24 03:35:00,47.1,25.7,29.81,SW,223,0.0,2.0,43,0.00,,,0.00,Wunderground v.1.15,2013-10-24 10:35:00,
2013-10-24 03:45:00,47.3,27.5,29.81,SW,223,0.0,2.0,46,0.00,,,0.00,Wunderground v.1.15,2013-10-24 10:45:00,
2013-10-24 03:50:00,47.6,27.3,29.81,SW,223,0.0,2.0,45,0.00,,,0.00,Wunderground v.1.15,2013-10-24 10:50:00,
2013-10-24 04:00:00,47.5,27.2,29.81,SW,223,0.0,0.0,45,0.00,,,0.00,Wunderground v.1.15,2013-10-24 11:00:00,
2013-10-24 04:10:00,46.7,25.9,29.81,SW,223,1.0,3.0,44,0.00,,,0.00,Wunderground v.1.15,2013-10-24 11:10:00,
2013-10-24 04:15:00,45.8,25.6,29.81,SW,223,3.0,3.0,45,0.00,,,0.00,Wunderground v.1.15,2013-10-24 11:15:00,
2013-10-24 04:25:00,45.4,26.8,29.81,SW,223,2.0,3.0,48,0.00,,,0.00,Wunderground v.1.15,2013-10-24 11:25:00,
2013-10-24 04:30:00,45.7,26.6,29.81,SW,223,2.0,3.0,47,0.00,,,0.00,Wunderground v.1.15,2013-10-24 11:30:00,
2013-10-24 04:40:00,46.0,27.4,29.81,SW,223,2.0,2.0,48,0.00,,,0.00,Wunderground v.1.15,2013-10-24 11:40:00,
2013-10-24 04:45:00,46.4,27.8,29.81,SW,223,0.0,2.0,48,0.00,,,0.00,Wunderground v.1.15,2013-10-24 11:45:00,
2013-10-24 04:50:00,45.9,26.8,29.81,SW,223,1.0,1.0,47,0.00,,,0.00,Wunderground v.1.15,2013-10-24 11:50:00,
2013-10-24 04:55:00,45.5,26.4,29.81,SW,223,1.0,1.0,47,0.00,,,0.00,Wunderground v.1.15,2013-10-24 11:55:00,
2013-10-24 05:00:00,45.2,26.7,29.81,SW,223,0.0,2.0,48,0.00,,,0.00,Wunderground v.1.15,2013-10-24 12:00:00,
2013-10-24 05:10:00,44.9,26.9,29.81,SW,223,1.0,2.0,49,0.00,,,0.00,Wunderground v.1.15,2013-10-24 12:10:00,
2013-10-24 05:20:00,44.7,27.2,29.81,SW,223,1.0,1.0,50,0.00,,,0.00,Wunderground v.1.15,2013-10-24 12:20:00,
2013-10-24 05:25:00,44.5,27.5,29.81,SW,223,1.0,2.0,51,0.00,,,0.00,Wunderground v.1.15,2013-10-24 12:25:00,
2013-10-24 05:30:00,44.2,27.2,29.81,SW,223,1.0,3.0,51,0.00,,,0.00,Wunderground v.1.15,2013-10-24 12:30:00,
2013-10-24 05:35:00,44.2,27.7,29.81,SW,223,2.0,3.0,52,0.00,,,0.00,Wunderground v.1.15,2013-10-24 12:35:00,
2013-10-24 05:45:00,44.1,27.1,29.81,SW,223,2.0,4.0,51,0.00,,,0.00,Wunderground v.1.15,2013-10-24 12:45:00,
2013-10-24 05:50:00,44.1,27.1,29.81,SW,223,3.0,3.0,51,0.00,,,0.00,Wunderground v.1.15,2013-10-24 12:50:00,
2013-10-24 05:55:00,44.2,27.2,29.81,SW,223,3.0,3.0,51,0.00,,,0.00,Wunderground v.1.15,2013-10-24 12:55:00,
2013-10-24 06:00:00,44.3,27.3,29.81,SW,223,2.0,3.0,51,0.00,,,0.00,Wunderground v.1.15,2013-10-24 13:00:00,
2013-10-24 06:10:00,44.4,26.9,29.81,SW,223,3.0,3.0,50,0.00,,,0.00,Wunderground v.1.15,2013-10-24 13:10:00,
2013-10-24 06:15:00,44.2,27.2,29.81,SW,223,3.0,4.0,51,0.00,,,0.00,Wunderground v.1.15,2013-10-24 13:15:00,
2013-10-24 06:20:00,44.2,27.2,29.81,SW,223,4.0,4.0,51,0.00,,,0.00,Wunderground v.1.15,2013-10-24 13:20:00,
2013-10-24 06:25:00,44.2,27.2,29.81,SW,223,3.0,4.0,51,0.00,,,0.00,Wunderground v.1.15,2013-10-24 13:25:00,
2013-10-24 06:30:00,44.6,28.0,29.81,SW,223,3.0,4.0,52,0.00,,,0.00,Wunderground v.1.15,2013-10-24 13:30:00,
2013-10-24 06:35:00,45.0,27.5,29.81,SW,223,3.0,4.0,50,0.00,,,0.00,Wunderground v.1.15,2013-10-24 13:35:00,
2013-10-24 06:40:00,44.7,27.7,29.81,SW,223,3.0,3.0,51,0.00,,,0.00,Wunderground v.1.15,2013-10-24 13:40:00,
2013-10-24 06:50:00,45.1,28.5,29.81,WSW,242,3.0,3.0,52,0.00,,,0.00,Wunderground v.1.15,2013-10-24 13:50:00,
2013-10-24 06:55:00,45.7,29.1,29.81,WSW,242,1.0,4.0,52,0.00,,,0.00,Wunderground v.1.15,2013-10-24 13:55:00,
2013-10-24 07:00:00,46.2,28.6,29.81,WSW,242,0.0,2.0,50,0.00,,,0.00,Wunderground v.1.15,2013-10-24 14:00:00,
2013-10-24 07:10:00,47.2,30.0,29.81,WSW,242,2.0,2.0,51,0.00,,,0.00,Wunderground v.1.15,2013-10-24 14:10:00,
2013-10-24 07:20:00,49.2,30.3,29.81,WSW,242,2.0,2.0,48,0.00,,,0.00,Wunderground v.1.15,2013-10-24 14:20:00,
2013-10-24 07:30:00,50.7,31.2,29.81,WSW,242,1.0,1.0,47,0.00,,,0.00,Wunderground v.1.15,2013-10-24 14:30:00,
2013-10-24 07:35:00,50.9,31.4,29.81,WSW,242,0.0,1.0,47,0.00,,,0.00,Wunderground v.1.15,2013-10-24 14:35:00,
2013-10-24 07:45:00,51.3,31.7,29.81,WSW,242,0.0,1.0,47,0.00,,,0.00,Wunderground v.1.15,2013-10-24 14:45:00,
2013-10-24 07:50:00,51.8,32.7,29.81,WSW,242,0.0,0.0,48,0.00,,,0.00,Wunderground v.1.15,2013-10-24 14:50:00,
2013-10-24 07:55:00,53.0,33.3,29.81,WNW,296,0.0,0.0,47,0.00,,,0.00,Wunderground v.1.15,2013-10-24 14:55:00,
2013-10-24 08:00:00,54.4,33.5,29.81,WNW,298,1.0,1.0,45,0.00,,,0.00,Wunderground v.1.15,2013-10-24 15:00:00,
2013-10-24 08:10:00,56.3,34.6,29.81,NW,306,1.0,1.0,44,0.00,,,0.00,Wunderground v.1.15,2013-10-24 15:10:00,
2013-10-24 08:20:00,57.8,34.8,29.81,WSW,249,0.0,0.0,42,0.00,,,0.00,Wunderground v.1.15,2013-10-24 15:20:00,
2013-10-24 08:25:00,58.6,35.0,29.81,WSW,254,0.0,3.0,41,0.00,,,0.00,Wunderground v.1.15,2013-10-24 15:25:00,
2013-10-24 08:30:00,59.2,35.5,29.81,WSW,254,0.0,3.0,41,0.00,,,0.00,Wunderground v.1.15,2013-10-24 15:30:00,
2013-10-24 08:35:00,59.8,35.4,29.81,West,259,0.0,3.0,40,0.00,,,0.00,Wunderground v.1.15,2013-10-24 15:35:00,
2013-10-24 08:40:00,60.2,35.1,29.81,West,266,0.0,3.0,39,0.00,,,0.00,Wunderground v.1.15,2013-10-24 15:40:00,
2013-10-24 08:45:00,61.0,35.2,29.81,West,269,0.0,3.0,38,0.00,,,0.00,Wunderground v.1.15,2013-10-24 15:45:00,
2013-10-24 08:55:00,62.7,36.0,29.81,NNE,25,0.0,3.0,37,0.00,,,0.00,Wunderground v.1.15,2013-10-24 15:55:00,
2013-10-24 09:00:00,63.7,36.2,29.81,NNE,18,1.0,3.0,36,0.00,,,0.00,Wunderground v.1.15,2013-10-24 16:00:00,
2013-10-24 09:10:00,64.5,36.2,29.81,NE,47,1.0,2.0,35,0.00,,,0.00,Wunderground v.1.15,2013-10-24 16:10:00,
2013-10-24 09:15:00,64.7,36.4,29.81,NE,47,1.0,2.0,35,0.00,,,0.00,Wunderground v.1.15,2013-10-24 16:15:00,
2013-10-24 09:20:00,65.2,36.1,29.81,NE,47,1.0,1.0,34,0.00,,,0.00,Wunderground v.1.15,2013-10-24 16:20:00,
2013-10-24 09:25:00,66.2,36.2,29.81,NE,47,1.0,4.0,33,0.00,,,0.00,Wunderground v.1.15,2013-10-24 16:25:00,
2013-10-24 09:30:00,66.9,36.8,29.81,NE,54,1.0,1.0,33,0.00,,,0.00,Wunderground v.1.15,2013-10-24 16:30:00,
2013-10-24 09:35:00,67.2,37.1,29.81,NE,55,2.0,2.0,33,0.00,,,0.00,Wunderground v.1.15,2013-10-24 16:35:00,
2013-10-24 09:40:00,67.6,37.5,29.81,ENE,67,2.0,2.0,33,0.00,,,0.00,Wunderground v.1.15,2013-10-24 16:40:00,
2013-10-24 09:45:00,68.1,37.9,29.81,ENE,59,2.0,4.0,33,0.00,,,0.00,Wunderground v.1.15,2013-10-24 16:45:00,
2013-10-24 09:55:00,69.4,38.2,29.81,NE,56,2.0,4.0,32,0.00,,,0.00,Wunderground v.1.15,2013-10-24 16:55:00,
2013-10-24 10:00:00,70.0,38.0,29.81,ENE,59,2.0,2.0,31,0.00,,,0.00,Wunderground v.1.15,2013-10-24 17:00:00,
2013-10-24 10:10:00,71.0,38.0,29.81,ENE,65,1.0,1.0,30,0.00,,,0.00,Wunderground v.1.15,2013-10-24 17:10:00,
2013-10-24 10:15:00,71.5,38.4,29.81,NE,53,2.0,2.0,30,0.00,,,0.00,Wunderground v.1.15,2013-10-24 17:15:00,
2013-10-24 10:25:00,73.2,38.1,29.81,ENE,76,2.0,4.0,28,0.00,,,0.00,Wunderground v.1.15,2013-10-24 17:25:00,
2013-10-24 10:30:00,74.0,38.8,29.81,NE,37,3.0,5.0,28,0.00,,,0.00,Wunderground v.1.15,2013-10-24 17:30:00,
2013-10-24 10:35:00,74.7,38.5,29.81,ENE,76,5.0,9.0,27,0.00,,,0.00,Wunderground v.1.15,2013-10-24 17:35:00,
2013-10-24 10:40:00,75.5,38.2,29.81,ESE,122,5.0,15.0,26,0.00,,,0.00,Wunderground v.1.15,2013-10-24 17:40:00,
2013-10-24 10:45:00,76.7,38.2,29.81,SSE,158,6.0,15.0,25,0.00,,,0.00,Wunderground v.1.15,2013-10-24 17:45:00,
2013-10-24 10:50:00,77.6,39.0,29.81,SE,128,6.0,6.0,25,0.00,,,0.00,Wunderground v.1.15,2013-10-24 17:50:00,
2013-10-24 10:55:00,77.5,38.9,29.81,ESE,120,7.0,8.0,25,0.00,,,0.00,Wunderground v.1.15,2013-10-24 17:55:00,
2013-10-24 11:00:00,77.8,39.1,29.81,SE,132,8.0,10.0,25,0.00,,,0.00,Wunderground v.1.15,2013-10-24 18:00:00,
2013-10-24 11:10:00,78.2,39.5,29.81,SE,142,8.0,9.0,25,0.00,,,0.00,Wunderground v.1.15,2013-10-24 18:10:00,
2013-10-24 11:15:00,78.4,40.7,29.81,SSE,160,9.0,9.0,26,0.00,,,0.00,Wunderground v.1.15,2013-10-24 18:15:00,
2013-10-24 11:20:00,78.4,39.7,29.81,SE,128,10.0,11.0,25,0.00,,,0.00,Wunderground v.1.15,2013-10-24 18:20:00,
2013-10-24 11:25:00,78.2,39.5,29.81,SE,146,8.0,12.0,25,0.00,,,0.00,Wunderground v.1.15,2013-10-24 18:25:00,
2013-10-24 11:35:00,79.4,41.5,29.81,SSE,159,9.0,17.0,26,0.00,,,0.00,Wunderground v.1.15,2013-10-24 18:35:00,
2013-10-24 11:40:00,80.2,41.2,29.81,ESE,111,8.0,17.0,25,0.00,,,0.00,Wunderground v.1.15,2013-10-24 18:40:00,
2013-10-24 11:45:00,81.0,41.9,29.81,ESE,110,9.0,17.0,25,0.00,,,0.00,Wunderground v.1.15,2013-10-24 18:45:00,
2013-10-24 11:50:00,80.8,40.6,29.81,ESE,119,11.0,17.0,24,0.00,,,0.00,Wunderground v.1.15,2013-10-24 18:50:00,
2013-10-24 11:55:00,80.4,42.4,29.81,SE,126,13.0,17.0,26,0.00,,,0.00,Wunderground v.1.15,2013-10-24 18:55:00,
2013-10-24 12:00:00,80.5,42.4,29.81,SE,126,9.0,13.0,26,0.00,,,0.00,Wunderground v.1.15,2013-10-24 19:00:00,
2013-10-24 12:10:00,80.3,39.1,29.81,SE,136,8.0,19.0,23,0.00,,,0.00,Wunderground v.1.15,2013-10-24 19:10:00,
2013-10-24 12:15:00,80.3,39.1,29.81,ESE,118,12.0,19.0,23,0.00,,,0.00,Wunderground v.1.15,2013-10-24 19:15:00,
2013-10-24 12:20:00,80.9,39.6,29.81,SE,131,13.0,14.0,23,0.00,,,0.00,Wunderground v.1.15,2013-10-24 19:20:00,
2013-10-24 12:25:00,80.9,38.5,29.81,SE,145,11.0,23.0,22,0.00,,,0.00,Wunderground v.1.15,2013-10-24 19:25:00,
2013-10-24 12:30:00,80.5,38.1,29.81,ESE,121,10.0,23.0,22,0.00,,,0.00,Wunderground v.1.15,2013-10-24 19:30:00,
2013-10-24 12:35:00,80.2,39.0,29.81,SW,228,9.0,23.0,23,0.00,,,0.00,Wunderground v.1.15,2013-10-24 19:35:00,
2013-10-24 12:45:00,81.1,38.6,29.81,SE,140,8.0,23.0,22,0.00,,,0.00,Wunderground v.1.15,2013-10-24 19:45:00,
2013-10-24 12:55:00,81.0,38.6,29.81,SE,144,6.0,23.0,22,0.00,,,0.00,Wunderground v.1.15,2013-10-24 19:55:00,
2013-10-24 13:00:00,81.5,39.0,29.81,SSE,150,6.0,6.0,22,0.00,,,0.00,Wunderground v.1.15,2013-10-24 20:00:00,
2013-10-24 13:10:00,82.0,38.2,29.81,SE,129,5.0,9.0,21,0.00,,,0.00,Wunderground v.1.15,2013-10-24 20:10:00,
2013-10-24 13:15:00,82.1,38.3,29.81,SE,139,6.0,9.0,21,0.00,,,0.00,Wunderground v.1.15,2013-10-24 20:15:00,
2013-10-24 13:25:00,82.0,39.4,29.81,SE,146,5.0,21.0,22,0.00,,,0.00,Wunderground v.1.15,2013-10-24 20:25:00,
2013-10-24 13:30:00,81.7,39.1,29.81,ESE,119,5.0,21.0,22,0.00,,,0.00,Wunderground v.1.15,2013-10-24 20:30:00,
2013-10-24 13:35:00,82.2,39.6,29.81,ESE,117,9.0,21.0,22,0.00,,,0.00,Wunderground v.1.15,2013-10-24 20:35:00,
2013-10-24 13:40:00,82.6,39.9,29.81,SE,136,11.0,21.0,22,0.00,,,0.00,Wunderground v.1.15,2013-10-24 20:40:00,
2013-10-24 13:45:00,83.0,40.2,29.81,ESE,109,10.0,21.0,22,0.00,,,0.00,Wunderground v.1.15,2013-10-24 20:45:00,
2013-10-24 13:50:00,82.7,38.8,29.81,ESE,113,10.0,21.0,21,0.00,,,0.00,Wunderground v.1.15,2013-10-24 20:50:00,
2013-10-24 13:55:00,82.4,38.5,29.81,SE,128,13.0,21.0,21,0.00,,,0.00,Wunderground v.1.15,2013-10-24 20:55:00,
2013-10-24 14:00:00,82.3,38.4,29.81,ESE,111,13.0,16.0,21,0.00,,,0.00,Wunderground v.1.15,2013-10-24 21:00:00,
2013-10-24 14:10:00,83.0,39.0,29.81,SE,130,13.0,20.0,21,0.00,,,0.00,Wunderground v.1.15,2013-10-24 21:10:00,
2013-10-24 14:15:00,82.9,38.9,29.81,SE,128,12.0,20.0,21,0.00,,,0.00,Wunderground v.1.15,2013-10-24 21:15:00,
2013-10-24 14:20:00,82.8,38.9,29.81,ESE,114,13.0,13.0,21,0.00,,,0.00,Wunderground v.1.15,2013-10-24 21:20:00,
2013-10-24 14:25:00,82.3,38.4,29.81,SE,144,11.0,21.0,21,0.00,,,0.00,Wunderground v.1.15,2013-10-24 21:25:00,
2013-10-24 14:35:00,82.1,38.3,29.81,SE,145,7.0,21.0,21,0.00,,,0.00,Wunderground v.1.15,2013-10-24 21:35:00,
2013-10-24 14:40:00,81.4,38.9,29.81,ESE,111,8.0,21.0,22,0.00,,,0.00,Wunderground v.1.15,2013-10-24 21:40:00,
2013-10-24 14:45:00,80.8,39.5,29.81,SE,140,10.0,21.0,23,0.00,,,0.00,Wunderground v.1.15,2013-10-24 21:45:00,
2013-10-24 14:50:00,80.6,39.4,29.81,ESE,116,8.0,21.0,23,0.00,,,0.00,Wunderground v.1.15,2013-10-24 21:50:00,
2013-10-24 14:55:00,80.7,39.4,29.81,ESE,123,8.0,21.0,23,0.00,,,0.00,Wunderground v.1.15,2013-10-24 21:55:00,
2013-10-24 15:00:00,80.8,38.4,29.81,SE,130,10.0,13.0,22,0.00,,,0.00,Wunderground v.1.15,2013-10-24 22:00:00,
2013-10-24 15:10:00,81.1,37.5,29.81,South,187,9.0,9.0,21,0.00,,,0.00,Wunderground v.1.15,2013-10-24 22:10:00,
2013-10-24 15:20:00,80.6,38.2,29.81,SSE,156,2.0,2.0,22,0.00,,,0.00,Wunderground v.1.15,2013-10-24 22:20:00,
2013-10-24 15:25:00,80.6,38.2,29.81,ESE,123,0.0,16.0,22,0.00,,,0.00,Wunderground v.1.15,2013-10-24 22:25:00,
2013-10-24 15:30:00,80.5,37.0,29.81,SE,136,0.0,16.0,21,0.00,,,0.00,Wunderground v.1.15,2013-10-24 22:30:00,
2013-10-24 15:35:00,80.2,36.7,29.81,SE,135,0.0,16.0,21,0.00,,,0.00,Wunderground v.1.15,2013-10-24 22:35:00,
2013-10-24 15:40:00,79.9,37.6,29.81,SSE,168,0.0,16.0,22,0.00,,,0.00,Wunderground v.1.15,2013-10-24 22:40:00,
2013-10-24 15:45:00,79.8,37.6,29.81,SE,138,0.0,16.0,22,0.00,,,0.00,Wunderground v.1.15,2013-10-24 22:45:00,
2013-10-24 15:50:00,79.7,37.5,29.81,ESE,121,1.0,1.0,22,0.00,,,0.00,Wunderground v.1.15,2013-10-24 22:50:00,
2013-10-24 15:55:00,79.7,37.5,29.81,ESE,105,2.0,8.0,22,0.00,,,0.00,Wunderground v.1.15,2013-10-24 22:55:00,
2013-10-24 16:00:00,79.8,37.6,29.81,SSW,211,4.0,4.0,22,0.00,,,0.00,Wunderground v.1.15,2013-10-24 23:00:00,
2013-10-24 16:10:00,79.7,33.8,29.81,SE,140,2.0,2.0,19,0.00,,,0.00,Wunderground v.1.15,2013-10-24 23:10:00,
2013-10-24 16:15:00,79.6,32.3,29.81,SW,216,3.0,3.0,18,0.00,,,0.00,Wunderground v.1.15,2013-10-24 23:15:00,
2013-10-24 16:25:00,79.4,32.2,29.81,SSW,209,1.0,8.0,18,0.00,,,0.00,Wunderground v.1.15,2013-10-24 23:25:00,
2013-10-24 16:30:00,79.2,33.4,29.81,SSW,192,1.0,1.0,19,0.00,,,0.00,Wunderground v.1.15,2013-10-24 23:30:00,
2013-10-24 16:35:00,79.1,29.0,29.81,South,184,1.0,8.0,16,0.00,,,0.00,Wunderground v.1.15,2013-10-24 23:35:00,
2013-10-24 16:40:00,79.1,29.0,29.81,SSE,166,1.0,1.0,16,0.00,,,0.00,Wunderground v.1.15,2013-10-24 23:40:00,
2013-10-24 16:45:00,79.2,29.1,29.81,South,184,0.0,2.0,16,0.00,,,0.00,Wunderground v.1.15,2013-10-24 23:45:00,
2013-10-24 16:50:00,79.1,29.0,29.81,South,191,1.0,1.0,16,0.00,,,0.00,Wunderground v.1.15,2013-10-24 23:50:00,
2013-10-24 17:00:00,78.6,28.6,29.81,SSW,194,0.0,0.0,16,0.00,,,0.00,Wunderground v.1.15,2013-10-25 00:00:00,
2013-10-24 17:10:00,78.0,29.6,29.81,South,169,0.0,3.0,17,0.00,,,0.00,Wunderground v.1.15,2013-10-25 00:10:00,
2013-10-24 17:15:00,77.6,29.3,29.81,SSE,157,0.0,3.0,17,0.00,,,0.00,Wunderground v.1.15,2013-10-25 00:15:00,
2013-10-24 17:20:00,77.3,29.1,29.81,SSE,157,0.0,0.0,17,0.00,,,0.00,Wunderground v.1.15,2013-10-25 00:20:00,
2013-10-24 17:25:00,77.2,29.0,29.81,South,187,1.0,1.0,17,0.00,,,0.00,Wunderground v.1.15,2013-10-25 00:25:00,
2013-10-24 17:30:00,77.1,28.9,29.81,SSE,160,1.0,1.0,17,0.00,,,0.00,Wunderground v.1.15,2013-10-25 00:30:00,
2013-10-24 17:35:00,77.0,28.8,29.81,South,180,1.0,4.0,17,0.00,,,0.00,Wunderground v.1.15,2013-10-25 00:35:00,
2013-10-24 17:40:00,76.8,28.7,29.81,South,181,0.0,4.0,17,0.00,,,0.00,Wunderground v.1.15,2013-10-25 00:40:00,
2013-10-24 17:45:00,76.5,28.4,29.81,South,180,0.0,4.0,17,0.00,,,0.00,Wunderground v.1.15,2013-10-25 00:45:00,
2013-10-24 17:55:00,75.7,29.2,29.81,South,182,0.0,4.0,18,0.00,,,0.00,Wunderground v.1.15,2013-10-25 00:55:00,
2013-10-24 18:00:00,75.2,28.8,29.81,South,182,0.0,3.0,18,0.00,,,0.00,Wunderground v.1.15,2013-10-25 01:00:00,
2013-10-24 18:10:00,74.5,29.5,29.81,South,191,3.0,6.0,19,0.00,,,0.00,Wunderground v.1.15,2013-10-25 01:10:00,
2013-10-24 18:15:00,74.2,30.5,29.81,South,191,4.0,6.0,20,0.00,,,0.00,Wunderground v.1.15,2013-10-25 01:15:00,
2013-10-24 18:20:00,74.0,30.4,29.81,SSW,193,3.0,3.0,20,0.00,,,0.00,Wunderground v.1.15,2013-10-25 01:20:00,
2013-10-24 18:30:00,73.6,30.0,29.81,SSW,200,4.0,4.0,20,0.00,,,0.00,Wunderground v.1.15,2013-10-25 01:30:00,
2013-10-24 18:35:00,73.2,29.7,29.81,SSW,202,4.0,5.0,20,0.00,,,0.00,Wunderground v.1.15,2013-10-25 01:35:00,
2013-10-24 18:40:00,72.8,30.6,29.81,SSW,205,4.0,5.0,21,0.00,,,0.00,Wunderground v.1.15,2013-10-25 01:40:00,
2013-10-24 18:45:00,72.6,30.4,29.81,SSW,205,4.0,5.0,21,0.00,,,0.00,Wunderground v.1.15,2013-10-25 01:45:00,
2013-10-24 18:55:00,73.1,28.4,29.81,SW,223,5.0,6.0,19,0.00,,,0.00,Wunderground v.1.15,2013-10-25 01:55:00,
2013-10-24 19:00:00,73.7,28.8,29.81,SW,230,6.0,6.0,19,0.00,,,0.00,Wunderground v.1.15,2013-10-25 02:00:00,
2013-10-24 19:10:00,73.1,28.4,29.81,West,263,6.0,6.0,19,0.00,,,0.00,Wunderground v.1.15,2013-10-25 02:10:00,
2013-10-24 19:15:00,72.8,28.1,29.81,WSW,255,6.0,7.0,19,0.00,,,0.00,Wunderground v.1.15,2013-10-25 02:15:00,
2013-10-24 19:20:00,72.7,28.0,29.81,WSW,255,6.0,6.0,19,0.00,,,0.00,Wunderground v.1.15,2013-10-25 02:20:00,
2013-10-24 19:25:00,72.3,29.0,29.81,WSW,252,5.0,9.0,20,0.00,,,0.00,Wunderground v.1.15,2013-10-25 02:25:00,
2013-10-24 19:30:00,71.8,28.5,29.81,WSW,252,5.0,5.0,20,0.00,,,0.00,Wunderground v.1.15,2013-10-25 02:30:00,
2013-10-24 19:35:00,71.3,28.1,29.81,WSW,252,4.0,9.0,20,0.00,,,0.00,Wunderground v.1.15,2013-10-25 02:35:00,
2013-10-24 19:40:00,70.4,28.6,29.81,WSW,253,4.0,9.0,21,0.00,,,0.00,Wunderground v.1.15,2013-10-25 02:40:00,
2013-10-24 19:45:00,70.1,28.3,29.81,WSW,253,5.0,9.0,21,0.00,,,0.00,Wunderground v.1.15,2013-10-25 02:45:00,
2013-10-24 19:55:00,70.3,28.5,29.81,WSW,247,5.0,6.0,21,0.00,,,0.00,Wunderground v.1.15,2013-10-25 02:55:00,
2013-10-24 20:00:00,70.4,28.6,29.81,WSW,248,5.0,5.0,21,0.00,,,0.00,Wunderground v.1.15,2013-10-25 03:00:00,
2013-10-24 20:11:00,70.7,27.6,29.81,WSW,258,6.0,6.0,20,0.00,,,0.00,Wunderground v.1.15,2013-10-25 03:11:00,
2013-10-24 20:20:00,70.2,28.4,29.81,West,267,5.0,5.0,21,0.00,,,0.00,Wunderground v.1.15,2013-10-25 03:20:00,
2013-10-24 20:30:00,70.3,27.3,29.81,West,273,5.0,5.0,20,0.00,,,0.00,Wunderground v.1.15,2013-10-25 03:30:00,
2013-10-24 20:40:00,69.3,27.7,29.81,West,274,1.0,1.0,21,0.00,,,0.00,Wunderground v.1.15,2013-10-25 03:40:00,
2013-10-24 20:45:00,68.4,28.0,29.81,West,274,0.0,2.0,22,0.00,,,0.00,Wunderground v.1.15,2013-10-25 03:45:00,
2013-10-24 20:50:00,69.0,27.4,29.81,West,265,1.0,7.0,21,0.00,,,0.00,Wunderground v.1.15,2013-10-25 03:50:00,
2013-10-24 20:55:00,69.9,27.0,29.81,West,262,2.0,7.0,20,0.00,,,0.00,Wunderground v.1.15,2013-10-25 03:55:00,
2013-10-24 21:00:00,69.6,26.7,29.81,NW,308,3.0,4.0,20,0.00,,,0.00,Wunderground v.1.15,2013-10-25 04:00:00,
2013-10-24 21:05:00,71.2,26.8,29.81,WNW,295,3.0,4.0,19,0.00,,,0.00,Wunderground v.1.15,2013-10-25 04:05:00,
2013-10-24 21:10:00,71.2,26.8,29.81,WNW,294,2.0,2.0,19,0.00,,,0.00,Wunderground v.1.15,2013-10-25 04:10:00,
2013-10-24 21:15:00,70.5,27.5,29.81,WNW,294,1.0,2.0,20,0.00,,,0.00,Wunderground v.1.15,2013-10-25 04:15:00,
2013-10-24 21:20:00,69.5,26.6,29.81,SW,216,1.0,2.0,20,0.00,,,0.00,Wunderground v.1.15,2013-10-25 04:20:00,
2013-10-24 21:25:00,69.0,26.2,29.81,SSE,163,1.0,10.0,20,0.00,,,0.00,Wunderground v.1.15,2013-10-25 04:25:00,
2013-10-24 21:30:00,70.0,27.0,29.81,WSW,248,1.0,10.0,20,0.00,,,0.00,Wunderground v.1.15,2013-10-25 04:30:00,
2013-10-24 21:35:00,70.5,27.5,29.81,SW,215,2.0,10.0,20,0.00,,,0.00,Wunderground v.1.15,2013-10-25 04:35:00,
2013-10-24 21:40:00,70.1,25.9,29.81,SW,224,2.0,2.0,19,0.00,,,0.00,Wunderground v.1.15,2013-10-25 04:40:00,
2013-10-24 21:45:00,69.4,26.6,29.81,SW,228,3.0,4.0,20,0.00,,,0.00,Wunderground v.1.15,2013-10-25 04:45:00,
2013-10-24 21:50:00,68.5,25.8,29.81,SW,229,3.0,10.0,20,0.00,,,0.00,Wunderground v.1.15,2013-10-25 04:50:00,
2013-10-24 21:55:00,68.2,25.6,29.81,SW,235,3.0,10.0,20,0.00,,,0.00,Wunderground v.1.15,2013-10-25 04:55:00,
2013-10-24 22:01:00,68.5,25.8,29.81,WSW,245,4.0,4.0,20,0.00,,,0.00,Wunderground v.1.15,2013-10-25 05:01:00,
2013-10-24 22:10:00,67.4,26.1,29.81,WSW,256,3.0,8.0,21,0.00,,,0.00,Wunderground v.1.15,2013-10-25 05:10:00,
2013-10-24 22:15:00,67.5,27.3,29.81,NNW,340,3.0,8.0,22,0.00,,,0.00,Wunderground v.1.15,2013-10-25 05:15:00,
2013-10-24 22:25:00,66.4,27.4,29.81,North,360,2.0,6.0,23,0.00,,,0.00,Wunderground v.1.15,2013-10-25 05:25:00,
2013-10-24 22:30:00,66.0,27.1,29.81,North,360,1.0,1.0,23,0.00,,,0.00,Wunderground v.1.15,2013-10-25 05:30:00,
2013-10-24 22:35:00,65.4,28.6,29.81,North,360,0.0,6.0,25,0.00,,,0.00,Wunderground v.1.15,2013-10-25 05:35:00,
2013-10-24 22:40:00,64.5,27.9,29.81,North,360,0.0,6.0,25,0.00,,,0.00,Wunderground v.1.15,2013-10-25 05:40:00,
2013-10-24 22:50:00,61.6,27.3,29.81,ENE,72,1.0,1.0,27,0.00,,,0.00,Wunderground v.1.15,2013-10-25 05:50:00,
2013-10-24 22:55:00,59.8,27.4,29.81,East,83,0.0,3.0,29,0.00,,,0.00,Wunderground v.1.15,2013-10-25 05:55:00,
2013-10-24 23:05:00,57.3,27.7,29.81,East,98,1.0,1.0,32,0.00,,,0.00,Wunderground v.1.15,2013-10-25 06:05:00,
2013-10-24 23:15:00,57.1,27.5,29.81,East,101,0.0,0.0,32,0.00,,,0.00,Wunderground v.1.15,2013-10-25 06:15:00,
2013-10-24 23:20:00,57.2,27.6,29.81,East,101,0.0,0.0,32,0.00,,,0.00,Wunderground v.1.15,2013-10-25 06:20:00,
2013-10-24 23:25:00,57.4,27.0,29.81,SSE,155,0.0,5.0,31,0.00,,,0.00,Wunderground v.1.15,2013-10-25 06:25:00,
2013-10-24 23:30:00,57.6,26.4,29.81,SSE,155,0.0,5.0,30,0.00,,,0.00,Wunderground v.1.15,2013-10-25 06:30:00,
2013-10-24 23:35:00,57.3,26.9,29.81,SSE,155,0.0,5.0,31,0.00,,,0.00,Wunderground v.1.15,2013-10-25 06:35:00,
2013-10-24 23:40:00,56.5,27.0,29.81,SSE,155,0.0,5.0,32,0.00,,,0.00,Wunderground v.1.15,2013-10-25 06:40:00,
2013-10-24 23:45:00,56.0,26.5,29.81,SSE,155,0.0,5.0,32,0.00,,,0.00,Wunderground v.1.15,2013-10-25 06:45:00,
2013-10-24 23:55:00,57.3,26.1,29.81,SSW,201,3.0,5.0,30,0.00,,,0.00,Wunderground v.1.15,2013-10-25 06:55:00,